ESGG

Gothenburg-Landvetter Airport

Gothenburg, Sweden
TAF ESGG 210530Z 2106/2206 24006KT CAVOK
Issued Valid From Valid To
Jul-21 @ 05:30 UTC
(5 hours ago)
Jul-21 @ 06:00 UTC
(4 hours ago)
Jul-22 @ 06:00 UTC
(in 20 hours)
Jul-21 @ 06:00 to Jul-22 @ 06:00
TAF ESGG 210530Z 2106/2206 24006KT CAVOK
Wind Visibility Clouds Conditions
240° at 6 knots 10,000+ meters
  • No significant clouds
TAF ESGG 210530Z 2106/2206 24006KT CAVOK
Issued Jul-21 @ 05:30 UTC
(5 hours ago)
Valid From Jul-21 @ 06:00 UTC
(4 hours ago)
Valid To Jul-22 @ 06:00 UTC
(in 20 hours)
Jul-21 @ 06:00 - Jul-22 @ 06:00
Wind Visibility
240° at 6 knots 10,000+ meters
Clouds
  • No significant clouds
Conditions